Shin Fuji Maru — JI3572 — position and weather

sailwx.info

Track history (hours):
 
Tides and Currents Weather Stations Pressure Air Temp Water Temp Dewpoint Dewpoint Depression Visibility Wind Speed Wind Dir Waves Ship Positions

Shin Fuji Maru

Last reported at 2017-Sep-29 11:07 UTC. Time now 2017-Oct-17 11:19 UTC.
Position N 34°55' E 139°40'.
Warning: this ship's position is 18 days out of date.

Length 27 m; draft 4.5 m.

Type: Cargo ship. MMSI: 431300208.

Date/timePositionNaut miles runAvg speedWind from/ knotsBaromVisibWave heightAir tempDewpointWater temp
2017-Sep-29 11:07N 34°55' E 139°40'2 8.2
2017-Sep-29 10:53N 34°57' E 139°41'3 8.1
2017-Sep-29 10:30N 34°60' E 139°41'4 8.4
2017-Sep-29 10:00N 35°04' E 139°42'4 8.4
2017-Sep-29 09:28N 35°08' E 139°44'4 9.1
2017-Sep-29 09:00N 35°12' E 139°46'5 8.8
2017-Sep-29 08:26N 35°17' E 139°45'4 9.1
2017-Sep-29 08:00N 35°20' E 139°42'4 8.6
2017-Sep-29 07:30N 35°25' E 139°42'3 5.9
2017-Sep-29 07:00N 35°28' E 139°41'0 0.3
2017-Sep-29 06:28N 35°27' E 139°41'0 0.0
2017-Sep-29 05:58N 35°27' E 139°41'0 0.0
2017-Sep-29 05:28N 35°27' E 139°41'0 0.0
2017-Sep-29 04:58N 35°27' E 139°41'0 0.0
2017-Sep-29 04:28N 35°27' E 139°41'0 0.0
2017-Sep-29 03:58N 35°27' E 139°41'0 0.0
2017-Sep-29 03:28N 35°27' E 139°41'0 0.0
2017-Sep-29 02:58N 35°27' E 139°41'0 0.0
2017-Sep-29 02:28N 35°27' E 139°41'0 0.0
2017-Sep-29 01:58N 35°27' E 139°41'0 0.0
2017-Sep-29 01:28N 35°27' E 139°41'0 0.0
2017-Sep-29 00:58N 35°27' E 139°41'0 0.0
2017-Sep-29 00:28N 35°27' E 139°41'0 0.0
2017-Sep-28 23:58N 35°27' E 139°41'0 0.0
2017-Sep-28 23:28N 35°27' E 139°41'0 0.0
2017-Sep-28 22:58N 35°27' E 139°41'0 0.0
2017-Sep-28 22:28N 35°27' E 139°41'0 0.0
2017-Sep-28 21:58N 35°27' E 139°41'0 0.0
2017-Sep-28 21:28N 35°27' E 139°41'0 0.0
2017-Sep-28 20:58N 35°27' E 139°41'0 0.0
2017-Sep-28 20:28N 35°27' E 139°41'0 0.0
2017-Sep-28 19:58N 35°27' E 139°41'0 0.0
2017-Sep-28 19:28N 35°27' E 139°41'0 0.0
2017-Sep-28 18:58N 35°27' E 139°41'0 0.0
2017-Sep-28 18:28N 35°27' E 139°41'0 0.0
2017-Sep-28 17:58N 35°27' E 139°41'0 0.0
2017-Sep-28 17:28N 35°27' E 139°41'0 0.0
2017-Sep-28 16:58N 35°27' E 139°41'0 0.0
2017-Sep-28 16:28N 35°27' E 139°41'0 0.0
2017-Sep-28 15:58N 35°27' E 139°41'0 0.0
2017-Sep-28 15:28N 35°27' E 139°41'0 0.0
2017-Sep-28 14:58N 35°27' E 139°41'0 0.0
2017-Sep-28 14:28N 35°27' E 139°41'0 0.0
2017-Sep-28 13:58N 35°27' E 139°41'0 0.0
2017-Sep-28 13:28N 35°27' E 139°41'0 0.0
2017-Sep-28 12:58N 35°27' E 139°41'0 0.0
2017-Sep-28 12:28N 35°27' E 139°41'0 0.0
2017-Sep-28 11:58N 35°27' E 139°41'0 0.0
2017-Sep-28 11:28N 35°27' E 139°41'0 0.0
2017-Sep-28 10:58N 35°27' E 139°41'0 0.0
2017-Sep-28 10:28N 35°27' E 139°41'0 0.0
2017-Sep-28 09:58N 35°27' E 139°41'0 0.0
2017-Sep-28 09:28N 35°27' E 139°41'0 0.0
2017-Sep-28 08:58N 35°27' E 139°41'0 0.0
2017-Sep-28 08:28N 35°27' E 139°41'0 0.0
2017-Sep-28 07:58N 35°27' E 139°41'0 0.0
2017-Sep-28 07:28N 35°27' E 139°41'0 0.0
2017-Sep-28 06:55N 35°27' E 139°41'0 0.0
2017-Sep-28 06:28N 35°27' E 139°41'0 0.0
2017-Sep-28 05:58N 35°27' E 139°41'0 0.0
2017-Sep-28 05:28N 35°27' E 139°41'0 0.0
2017-Sep-28 04:58N 35°27' E 139°41'0 0.0
2017-Sep-28 04:28N 35°27' E 139°41'0 0.0
2017-Sep-28 03:58N 35°27' E 139°41'0 0.0
2017-Sep-28 03:28N 35°27' E 139°41'0 0.0
2017-Sep-28 02:58N 35°27' E 139°41'0 0.0
2017-Sep-28 02:28N 35°27' E 139°41'0 0.0
2017-Sep-28 01:58N 35°27' E 139°41'0 0.0
2017-Sep-28 01:28N 35°27' E 139°41'0 0.0
2017-Sep-28 00:58N 35°27' E 139°41'0 0.0
2017-Sep-28 00:28N 35°27' E 139°41'0 0.0
2017-Sep-27 23:58N 35°27' E 139°41'0 0.0
2017-Sep-27 23:28N 35°27' E 139°41'0 0.0
2017-Sep-27 22:55N 35°27' E 139°41'0 0.0
2017-Sep-27 22:28N 35°27' E 139°41'0 0.0
2017-Sep-27 21:58N 35°27' E 139°41'0 0.0
2017-Sep-27 21:28N 35°27' E 139°41'0 0.0
2017-Sep-27 20:58N 35°27' E 139°41'0 0.0
2017-Sep-27 20:28N 35°27' E 139°41'0 0.0
2017-Sep-27 19:58N 35°27' E 139°41'0 0.0
2017-Sep-27 19:28N 35°27' E 139°41'0 0.0
2017-Sep-27 18:58N 35°27' E 139°41'0 0.0
2017-Sep-27 18:28N 35°27' E 139°41'0 0.0
2017-Sep-27 17:58N 35°27' E 139°41'0 0.0
2017-Sep-27 17:28N 35°27' E 139°41'0 0.0
2017-Sep-27 16:58N 35°27' E 139°41'0 0.0
2017-Sep-27 16:28N 35°27' E 139°41'0 0.0
2017-Sep-27 15:58N 35°27' E 139°41'0 0.0
2017-Sep-27 15:28N 35°27' E 139°41'0 0.0
2017-Sep-27 14:58N 35°27' E 139°41'0 0.0
2017-Sep-27 14:28N 35°27' E 139°41'0 0.0
2017-Sep-27 13:58N 35°27' E 139°41'0 0.0
2017-Sep-27 13:28N 35°27' E 139°41'0 0.0
2017-Sep-27 12:58N 35°27' E 139°41'0 0.0
2017-Sep-27 12:28N 35°27' E 139°41'0 0.0
2017-Sep-27 11:58N 35°27' E 139°41'0 0.0
2017-Sep-27 11:28N 35°27' E 139°41'0 0.0
2017-Sep-27 10:58N 35°27' E 139°41'0 0.0
2017-Sep-27 10:28N 35°27' E 139°41'0 0.0
2017-Sep-27 09:58N 35°27' E 139°41'0 0.0
2017-Sep-27 09:28N 35°27' E 139°41'0 0.0
2017-Sep-27 08:58N 35°27' E 139°41'0 0.0
2017-Sep-27 08:28N 35°27' E 139°41'0 0.0
2017-Sep-27 07:58N 35°27' E 139°41'0 0.0
2017-Sep-27 07:28N 35°27' E 139°41'0 0.0
2017-Sep-27 06:58N 35°27' E 139°41'0 0.0
2017-Sep-27 06:28N 35°27' E 139°41'0 0.0
2017-Sep-27 05:58N 35°27' E 139°41'0 0.0
2017-Sep-27 05:28N 35°27' E 139°41'0 0.0
2017-Sep-27 04:58N 35°27' E 139°41'0 0.0
2017-Sep-27 04:28N 35°27' E 139°41'0 0.0
2017-Sep-27 03:58N 35°27' E 139°41'0 0.0
2017-Sep-27 03:28N 35°27' E 139°41'0 0.0
2017-Sep-27 02:58N 35°27' E 139°41'0 0.0
2017-Sep-27 02:28N 35°27' E 139°41'0 0.0
2017-Sep-27 01:58N 35°27' E 139°41'0 0.0
2017-Sep-27 01:28N 35°27' E 139°41'0 0.0
2017-Sep-27 00:58N 35°27' E 139°41'0 0.0
2017-Sep-27 00:28N 35°27' E 139°41'0 0.0
2017-Sep-26 23:58N 35°27' E 139°41'0 0.0
2017-Sep-26 23:28N 35°27' E 139°41'0 0.0
2017-Sep-26 22:58N 35°27' E 139°41'0 0.0
2017-Sep-26 22:28N 35°27' E 139°41'0 0.0
2017-Sep-26 21:58N 35°27' E 139°41'0 0.0
2017-Sep-26 21:28N 35°27' E 139°41'0 0.0
2017-Sep-26 20:58N 35°27' E 139°41'0 0.0
2017-Sep-26 20:28N 35°27' E 139°41'0 0.0
2017-Sep-26 19:58N 35°27' E 139°41'0 0.0
2017-Sep-26 19:28N 35°27' E 139°41'0 0.0
2017-Sep-26 18:58N 35°27' E 139°41'0 0.0
2017-Sep-26 18:28N 35°27' E 139°41'0 0.0
2017-Sep-26 17:58N 35°27' E 139°41'0 0.0
2017-Sep-26 17:28N 35°27' E 139°41'0 0.0
2017-Sep-26 16:58N 35°27' E 139°41'0 0.0
2017-Sep-26 16:28N 35°27' E 139°41'0 0.0
2017-Sep-26 15:58N 35°27' E 139°41'0 0.0
2017-Sep-26 15:28N 35°27' E 139°41'0 0.0
2017-Sep-26 14:58N 35°27' E 139°41'0 0.0
2017-Sep-26 14:28N 35°27' E 139°41'0 0.0
2017-Sep-26 13:58N 35°27' E 139°41'0 0.0
2017-Sep-26 13:28N 35°27' E 139°41'0 0.0
2017-Sep-26 12:58N 35°27' E 139°41'0 0.0
2017-Sep-26 12:28N 35°27' E 139°41'0 0.0
2017-Sep-26 11:58N 35°27' E 139°41'0 0.0
2017-Sep-26 11:28N 35°27' E 139°41'0 0.0
2017-Sep-26 10:58N 35°27' E 139°41'0 0.0
2017-Sep-26 10:28N 35°27' E 139°41'0 0.0
2017-Sep-26 09:58N 35°27' E 139°41'0 0.0
2017-Sep-26 09:28N 35°27' E 139°41'0 0.0
2017-Sep-26 08:58N 35°27' E 139°41'0 0.0
2017-Sep-26 08:28N 35°27' E 139°41'0 0.0
2017-Sep-26 07:58N 35°27' E 139°41'0 0.0
2017-Sep-26 07:28N 35°27' E 139°41'0 0.0
2017-Sep-26 06:58N 35°27' E 139°41'0 0.0
2017-Sep-26 06:28N 35°27' E 139°41'0 0.0
2017-Sep-26 05:58N 35°27' E 139°41'0 0.0
2017-Sep-26 05:28N 35°27' E 139°41'0 0.0
2017-Sep-26 04:58N 35°27' E 139°41'0 0.0
2017-Sep-26 04:28N 35°27' E 139°41'0 0.0
2017-Sep-26 03:58N 35°27' E 139°41'0 0.0
2017-Sep-26 03:28N 35°27' E 139°41'0 0.0
2017-Sep-26 03:00N 35°27' E 139°41'0 0.0
2017-Sep-26 02:30N 35°27' E 139°41'0 0.0
2017-Sep-26 02:00N 35°27' E 139°41'0 0.0
2017-Sep-26 01:27N 35°27' E 139°41'0 0.0
2017-Sep-26 01:00N 35°27' E 139°41'0 0.0
2017-Sep-26 00:30N 35°27' E 139°41'0 0.0
2017-Sep-26 00:00N 35°27' E 139°41'0 0.0
2017-Sep-25 23:30N 35°27' E 139°41'0 0.0
2017-Sep-25 23:00N 35°27' E 139°41'0 0.0
2017-Sep-25 22:30N 35°27' E 139°41'0 0.0
2017-Sep-25 22:00N 35°27' E 139°41'0 0.0
2017-Sep-25 21:30N 35°27' E 139°41'0 0.0
2017-Sep-25 21:00N 35°27' E 139°41'0 0.0
2017-Sep-25 20:30N 35°27' E 139°41'0 0.0
2017-Sep-25 20:00N 35°27' E 139°41'0 0.0
2017-Sep-25 19:30N 35°27' E 139°41'0 0.0
2017-Sep-25 19:00N 35°27' E 139°41'0 0.0
2017-Sep-25 18:30N 35°27' E 139°41'0 0.0
2017-Sep-25 18:00N 35°27' E 139°41'0 0.0
2017-Sep-25 17:30N 35°27' E 139°41'0 0.0
2017-Sep-25 17:00N 35°27' E 139°41'0 0.0
2017-Sep-25 16:30N 35°27' E 139°41'0 0.0
2017-Sep-25 16:00N 35°27' E 139°41'0 0.0
2017-Sep-25 15:30N 35°27' E 139°41'0 0.0
2017-Sep-25 15:00N 35°27' E 139°41'0 0.0
2017-Sep-25 14:30N 35°27' E 139°41'0 0.0
2017-Sep-25 14:00N 35°27' E 139°41'0 0.0
2017-Sep-25 13:30N 35°27' E 139°41'0 0.0
2017-Sep-25 13:00N 35°27' E 139°41'0 0.0
2017-Sep-25 12:30N 35°27' E 139°41'0 0.0
2017-Sep-25 12:00N 35°27' E 139°41'0 0.0
2017-Sep-25 11:30N 35°27' E 139°41'0 0.0
2017-Sep-25 11:00N 35°27' E 139°41'0 0.0
2017-Sep-25 10:30N 35°27' E 139°41'0 0.0
2017-Sep-25 10:00N 35°27' E 139°41'0 0.0
2017-Sep-25 09:27N 35°27' E 139°41'0 0.0
2017-Sep-25 09:00N 35°27' E 139°41'0 0.0
2017-Sep-25 08:30N 35°27' E 139°41'0 0.0
2017-Sep-25 08:00N 35°27' E 139°41'0 0.0
2017-Sep-25 07:30N 35°27' E 139°41'0 0.0
2017-Sep-25 07:00N 35°27' E 139°41'0 0.0
2017-Sep-25 06:30N 35°27' E 139°41'0 0.0
2017-Sep-25 06:00N 35°27' E 139°41'0 0.0
2017-Sep-25 05:30N 35°27' E 139°41'0 0.0
2017-Sep-25 05:00N 35°27' E 139°41'0 0.0
2017-Sep-25 04:30N 35°27' E 139°41'0 0.0
2017-Sep-25 04:00N 35°27' E 139°41'0 0.0
2017-Sep-25 03:30N 35°27' E 139°41'0 0.0
2017-Sep-25 03:00N 35°27' E 139°41'0 0.0
2017-Sep-25 02:30N 35°27' E 139°41'0 0.0
2017-Sep-25 02:00N 35°27' E 139°41'0 0.0
2017-Sep-25 01:30N 35°27' E 139°41'0 0.0
2017-Sep-25 01:00N 35°27' E 139°41'0 0.0
2017-Sep-25 00:30N 35°27' E 139°41'0 0.0
2017-Sep-25 00:00N 35°27' E 139°41'0 0.0
2017-Sep-24 23:30N 35°27' E 139°41'0 0.0
2017-Sep-24 23:00N 35°27' E 139°41'0 0.0
2017-Sep-24 22:30N 35°27' E 139°41'0 0.0
2017-Sep-24 22:00N 35°27' E 139°41'0 0.0
2017-Sep-24 21:30N 35°27' E 139°41'0 0.0
2017-Sep-24 21:00N 35°27' E 139°41'0 0.0
2017-Sep-24 20:30N 35°27' E 139°41'0 0.0
2017-Sep-24 20:00N 35°27' E 139°41'0 0.0
2017-Sep-24 19:30N 35°27' E 139°41'0 0.0
2017-Sep-24 19:00N 35°27' E 139°41'0 0.0
2017-Sep-24 18:30N 35°27' E 139°41'0 0.0
2017-Sep-24 18:00N 35°27' E 139°41'0 0.0
2017-Sep-24 17:30N 35°27' E 139°41'0 0.0
2017-Sep-24 17:00N 35°27' E 139°41'0 0.0
2017-Sep-24 16:30N 35°27' E 139°41'0 0.0
2017-Sep-24 16:00N 35°27' E 139°41'0 0.0
2017-Sep-24 15:30N 35°27' E 139°41'0 0.0
2017-Sep-24 15:00N 35°27' E 139°41'0 0.0
2017-Sep-24 14:30N 35°27' E 139°41'0 0.0
2017-Sep-24 14:00N 35°27' E 139°41'0 0.0
2017-Sep-24 13:30N 35°27' E 139°41'0 0.0
2017-Sep-24 13:00N 35°27' E 139°41'0 0.0
2017-Sep-24 12:30N 35°27' E 139°41'0 0.0
2017-Sep-24 12:00N 35°27' E 139°41'0 0.0
2017-Sep-24 11:30N 35°27' E 139°41'0 0.0
2017-Sep-24 11:00N 35°27' E 139°41'0 0.0
2017-Sep-24 10:30N 35°27' E 139°41'0 0.0
2017-Sep-24 10:00N 35°27' E 139°41'0 0.0
2017-Sep-24 09:30N 35°27' E 139°41'0 0.0
2017-Sep-24 09:00N 35°27' E 139°41'0 0.0
2017-Sep-24 08:30N 35°27' E 139°41'0 0.0
2017-Sep-24 08:00N 35°27' E 139°41'0 0.0
2017-Sep-24 07:30N 35°27' E 139°41'0 0.0
2017-Sep-24 07:00N 35°27' E 139°41'0 0.0
2017-Sep-24 06:30N 35°27' E 139°41'0 0.0
2017-Sep-24 06:00N 35°27' E 139°41'0 0.0
2017-Sep-24 05:30N 35°27' E 139°41'0 0.0
2017-Sep-24 05:00N 35°27' E 139°41'0 0.0
2017-Sep-24 04:30N 35°27' E 139°41'0 0.0
2017-Sep-24 04:00N 35°27' E 139°41'0 0.0
2017-Sep-24 03:30N 35°27' E 139°41'0 0.0
2017-Sep-24 03:00N 35°27' E 139°41'0 0.0
2017-Sep-24 02:30N 35°27' E 139°41'0 0.0
2017-Sep-24 02:00N 35°27' E 139°41'0 0.0
2017-Sep-24 01:30N 35°27' E 139°41'0 0.0
2017-Sep-24 01:00N 35°27' E 139°41'0 0.0
2017-Sep-24 00:30N 35°27' E 139°41'0 0.0
2017-Sep-24 00:00N 35°27' E 139°41'0 0.0
2017-Sep-23 23:30N 35°27' E 139°41'0 0.0
2017-Sep-23 23:00N 35°27' E 139°41'0 0.0
2017-Sep-23 22:30N 35°27' E 139°41'0 0.0
2017-Sep-23 22:00N 35°27' E 139°41'0 0.0
2017-Sep-23 21:30N 35°27' E 139°41'0 0.0
2017-Sep-23 21:00N 35°27' E 139°41'0 0.0
2017-Sep-23 20:30N 35°27' E 139°41'0 0.0
2017-Sep-23 20:00N 35°27' E 139°41'0 0.0
2017-Sep-22 02:00N 35°27' E 139°41'0 0.0
2017-Sep-22 01:30N 35°27' E 139°41'0 0.0
2017-Sep-22 01:00N 35°27' E 139°41'0 0.0
2017-Sep-22 00:30N 35°27' E 139°41'0 0.0
2017-Sep-22 00:00N 35°27' E 139°41'0 0.0
2017-Sep-21 23:30N 35°27' E 139°41'0 0.0
2017-Sep-21 23:00N 35°27' E 139°41'0 0.0
2017-Sep-21 22:30N 35°27' E 139°41'0 0.0
2017-Sep-21 22:00N 35°27' E 139°41'0 0.0
2017-Sep-21 21:30N 35°27' E 139°41'0 0.0
2017-Sep-21 21:00N 35°27' E 139°41'0 0.0
2017-Sep-21 20:30N 35°27' E 139°41'0 0.0
2017-Sep-21 20:00N 35°27' E 139°41'0 0.0
2017-Sep-21 19:30N 35°27' E 139°41'0 0.0
2017-Sep-21 19:00N 35°27' E 139°41'0 0.0
2017-Sep-21 18:30N 35°27' E 139°41'0 0.0
2017-Sep-21 18:00N 35°27' E 139°41'0 0.0
2017-Sep-21 17:30N 35°27' E 139°41'0 0.0
2017-Sep-21 17:00N 35°27' E 139°41'0 0.0
2017-Sep-21 16:30N 35°27' E 139°41'0 0.0
2017-Sep-21 16:00N 35°27' E 139°41'0 0.0
2017-Sep-21 15:30N 35°27' E 139°41'0 0.0
2017-Sep-21 15:00N 35°27' E 139°41'0 0.0
2017-Sep-21 14:30N 35°27' E 139°41'0 0.0
2017-Sep-21 14:00N 35°27' E 139°41'0 0.0
2017-Sep-21 13:30N 35°27' E 139°41'0 0.0
2017-Sep-21 13:00N 35°27' E 139°41'0 0.0
2017-Sep-21 12:30N 35°27' E 139°41'0 0.0
2017-Sep-21 12:00N 35°27' E 139°41'0 0.0
2017-Sep-21 11:30N 35°27' E 139°41'0 0.0
2017-Sep-21 11:00N 35°27' E 139°41'0 0.0
2017-Sep-21 10:30N 35°27' E 139°41'0 0.0
2017-Sep-21 10:00N 35°27' E 139°41'0 0.0
2017-Sep-21 09:30N 35°27' E 139°41'0 0.0
2017-Sep-21 09:00N 35°27' E 139°41'0 0.0
2017-Sep-21 08:30N 35°27' E 139°41'0 0.0
2017-Sep-21 08:00N 35°27' E 139°41'0 0.0
2017-Sep-21 07:30N 35°27' E 139°41'0 0.0
2017-Sep-21 07:00N 35°27' E 139°41'0 0.0
2017-Sep-21 06:30N 35°27' E 139°41'0 0.0
2017-Sep-21 06:00N 35°27' E 139°41'0 0.0
2017-Sep-21 05:30N 35°27' E 139°41'0 0.0
2017-Sep-21 05:00N 35°27' E 139°41'0 0.0
2017-Sep-21 04:30N 35°27' E 139°41'0 0.0
2017-Sep-21 04:00N 35°27' E 139°41'0 0.0
2017-Sep-21 03:30N 35°27' E 139°41'0 0.0
2017-Sep-21 03:00N 35°27' E 139°41'0 0.0
2017-Sep-21 02:30N 35°27' E 139°41'0 0.0
2017-Sep-21 02:00N 35°27' E 139°41'0 0.0
2017-Sep-21 01:30N 35°27' E 139°41'0 0.0
2017-Sep-21 01:00N 35°27' E 139°41'0 0.0
2017-Sep-21 00:30N 35°27' E 139°41'0 0.0
2017-Sep-20 23:57N 35°27' E 139°41'0 0.0
2017-Sep-20 23:30N 35°27' E 139°41'0 0.0
2017-Sep-20 23:00N 35°27' E 139°41'0 0.0
2017-Sep-20 22:30N 35°27' E 139°41'0 0.0
2017-Sep-20 22:00N 35°27' E 139°41'0 0.0
2017-Sep-20 21:30N 35°27' E 139°41'0 0.0
2017-Sep-20 21:00N 35°27' E 139°41'0 0.0
2017-Sep-20 20:30N 35°27' E 139°41'0 0.0
2017-Sep-20 20:00N 35°27' E 139°41'0 0.0
2017-Sep-20 19:30N 35°27' E 139°41'0 0.0
2017-Sep-20 19:00N 35°27' E 139°41'0 0.0
2017-Sep-20 18:30N 35°27' E 139°41'0 0.0
2017-Sep-20 18:00N 35°27' E 139°41'0 0.0
2017-Sep-20 17:30N 35°27' E 139°41'0 0.0
2017-Sep-20 17:00N 35°27' E 139°41'0 0.0
2017-Sep-20 16:30N 35°27' E 139°41'0 0.0
2017-Sep-20 16:00N 35°27' E 139°41'0 0.0
2017-Sep-20 15:30N 35°27' E 139°41'0 0.0
2017-Sep-20 15:00N 35°27' E 139°41'0 0.0
2017-Sep-20 14:00N 35°27' E 139°41'0 0.0
2017-Sep-20 13:30N 35°27' E 139°41'0 0.0
2017-Sep-20 13:00N 35°27' E 139°41'0 0.0
2017-Sep-20 12:30N 35°27' E 139°41'0 0.0
2017-Sep-20 12:00N 35°27' E 139°41'0 0.0
2017-Sep-20 11:30N 35°27' E 139°41'0 0.0
2017-Sep-20 11:00N 35°27' E 139°41'0 0.0
2017-Sep-20 10:30N 35°27' E 139°41'0 0.0
2017-Sep-20 10:00N 35°27' E 139°41'0 0.0
2017-Sep-20 09:30N 35°27' E 139°41'0 0.0
2017-Sep-20 09:00N 35°27' E 139°41'0 0.0
2017-Sep-20 08:30N 35°27' E 139°41'0 0.0
2017-Sep-20 08:00N 35°27' E 139°41'0 0.2
2017-Sep-20 07:30N 35°28' E 139°41'2 4.7
2017-Sep-20 07:00N 35°27' E 139°44'2 4.7
2017-Sep-20 06:30N 35°25' E 139°46'4 7.3
2017-Sep-20 05:59N 35°21' E 139°45'5 9.2
2017-Sep-20 05:30N 35°17' E 139°46'5 9.3
2017-Sep-20 05:00N 35°12' E 139°47'4 8.9
2017-Sep-20 04:30N 35°08' E 139°47'3 6.5
2017-Sep-20 04:00N 35°05' E 139°47'4 8.7
2017-Sep-20 03:30N 35°01' E 139°45'5 9.1
2017-Sep-20 03:00N 34°56' E 139°43'  
Track history (hours):
 
Tides and Currents Weather Stations Pressure Air Temp Water Temp Dewpoint Dewpoint Depression Visibility Wind Speed Wind Dir Waves Ship Positions

Shin Fuji Maru

Last reported at 2017-Sep-29 11:07 UTC. Time now 2017-Oct-17 11:19 UTC.
Position N 34°55' E 139°40'.
Warning: this ship's position is 18 days out of date.

Length 27 m; draft 4.5 m.

Type: Cargo ship. MMSI: 431300208.

Date/timePositionNaut miles runAvg speedWind from/ knotsBaromVisibWave heightAir tempDewpointWater temp
2017-Sep-29 11:07N 34°55' E 139°40'2 8.2
2017-Sep-29 10:53N 34°57' E 139°41'3 8.1
2017-Sep-29 10:30N 34°60' E 139°41'4 8.4
2017-Sep-29 10:00N 35°04' E 139°42'4 8.4
2017-Sep-29 09:28N 35°08' E 139°44'4 9.1
2017-Sep-29 09:00N 35°12' E 139°46'5 8.8
2017-Sep-29 08:26N 35°17' E 139°45'4 9.1
2017-Sep-29 08:00N 35°20' E 139°42'4 8.6
2017-Sep-29 07:30N 35°25' E 139°42'3 5.9
2017-Sep-29 07:00N 35°28' E 139°41'0 0.3
2017-Sep-29 06:28N 35°27' E 139°41'0 0.0
2017-Sep-29 05:58N 35°27' E 139°41'0 0.0
2017-Sep-29 05:28N 35°27' E 139°41'0 0.0
2017-Sep-29 04:58N 35°27' E 139°41'0 0.0
2017-Sep-29 04:28N 35°27' E 139°41'0 0.0
2017-Sep-29 03:58N 35°27' E 139°41'0 0.0
2017-Sep-29 03:28N 35°27' E 139°41'0 0.0
2017-Sep-29 02:58N 35°27' E 139°41'0 0.0
2017-Sep-29 02:28N 35°27' E 139°41'0 0.0
2017-Sep-29 01:58N 35°27' E 139°41'0 0.0
2017-Sep-29 01:28N 35°27' E 139°41'0 0.0
2017-Sep-29 00:58N 35°27' E 139°41'0 0.0
2017-Sep-29 00:28N 35°27' E 139°41'0 0.0
2017-Sep-28 23:58N 35°27' E 139°41'0 0.0
2017-Sep-28 23:28N 35°27' E 139°41'0 0.0
2017-Sep-28 22:58N 35°27' E 139°41'0 0.0
2017-Sep-28 22:28N 35°27' E 139°41'0 0.0
2017-Sep-28 21:58N 35°27' E 139°41'0 0.0
2017-Sep-28 21:28N 35°27' E 139°41'0 0.0
2017-Sep-28 20:58N 35°27' E 139°41'0 0.0
2017-Sep-28 20:28N 35°27' E 139°41'0 0.0
2017-Sep-28 19:58N 35°27' E 139°41'0 0.0
2017-Sep-28 19:28N 35°27' E 139°41'0 0.0
2017-Sep-28 18:58N 35°27' E 139°41'0 0.0
2017-Sep-28 18:28N 35°27' E 139°41'0 0.0
2017-Sep-28 17:58N 35°27' E 139°41'0 0.0
2017-Sep-28 17:28N 35°27' E 139°41'0 0.0
2017-Sep-28 16:58N 35°27' E 139°41'0 0.0
2017-Sep-28 16:28N 35°27' E 139°41'0 0.0
2017-Sep-28 15:58N 35°27' E 139°41'0 0.0
2017-Sep-28 15:28N 35°27' E 139°41'0 0.0
2017-Sep-28 14:58N 35°27' E 139°41'0 0.0
2017-Sep-28 14:28N 35°27' E 139°41'0 0.0
2017-Sep-28 13:58N 35°27' E 139°41'0 0.0
2017-Sep-28 13:28N 35°27' E 139°41'0 0.0
2017-Sep-28 12:58N 35°27' E 139°41'0 0.0
2017-Sep-28 12:28N 35°27' E 139°41'0 0.0
2017-Sep-28 11:58N 35°27' E 139°41'0 0.0
2017-Sep-28 11:28N 35°27' E 139°41'0 0.0
2017-Sep-28 10:58N 35°27' E 139°41'0 0.0
2017-Sep-28 10:28N 35°27' E 139°41'0 0.0
2017-Sep-28 09:58N 35°27' E 139°41'0 0.0
2017-Sep-28 09:28N 35°27' E 139°41'0 0.0
2017-Sep-28 08:58N 35°27' E 139°41'0 0.0
2017-Sep-28 08:28N 35°27' E 139°41'0 0.0
2017-Sep-28 07:58N 35°27' E 139°41'0 0.0
2017-Sep-28 07:28N 35°27' E 139°41'0 0.0
2017-Sep-28 06:55N 35°27' E 139°41'0 0.0
2017-Sep-28 06:28N 35°27' E 139°41'0 0.0
2017-Sep-28 05:58N 35°27' E 139°41'0 0.0
2017-Sep-28 05:28N 35°27' E 139°41'0 0.0
2017-Sep-28 04:58N 35°27' E 139°41'0 0.0
2017-Sep-28 04:28N 35°27' E 139°41'0 0.0
2017-Sep-28 03:58N 35°27' E 139°41'0 0.0
2017-Sep-28 03:28N 35°27' E 139°41'0 0.0
2017-Sep-28 02:58N 35°27' E 139°41'0 0.0
2017-Sep-28 02:28N 35°27' E 139°41'0 0.0
2017-Sep-28 01:58N 35°27' E 139°41'0 0.0
2017-Sep-28 01:28N 35°27' E 139°41'0 0.0
2017-Sep-28 00:58N 35°27' E 139°41'0 0.0
2017-Sep-28 00:28N 35°27' E 139°41'0 0.0
2017-Sep-27 23:58N 35°27' E 139°41'0 0.0
2017-Sep-27 23:28N 35°27' E 139°41'0 0.0
2017-Sep-27 22:55N 35°27' E 139°41'0 0.0
2017-Sep-27 22:28N 35°27' E 139°41'0 0.0
2017-Sep-27 21:58N 35°27' E 139°41'0 0.0
2017-Sep-27 21:28N 35°27' E 139°41'0 0.0
2017-Sep-27 20:58N 35°27' E 139°41'0 0.0
2017-Sep-27 20:28N 35°27' E 139°41'0 0.0
2017-Sep-27 19:58N 35°27' E 139°41'0 0.0
2017-Sep-27 19:28N 35°27' E 139°41'0 0.0
2017-Sep-27 18:58N 35°27' E 139°41'0 0.0
2017-Sep-27 18:28N 35°27' E 139°41'0 0.0
2017-Sep-27 17:58N 35°27' E 139°41'0 0.0
2017-Sep-27 17:28N 35°27' E 139°41'0 0.0
2017-Sep-27 16:58N 35°27' E 139°41'0 0.0
2017-Sep-27 16:28N 35°27' E 139°41'0 0.0
2017-Sep-27 15:58N 35°27' E 139°41'0 0.0
2017-Sep-27 15:28N 35°27' E 139°41'0 0.0
2017-Sep-27 14:58N 35°27' E 139°41'0 0.0
2017-Sep-27 14:28N 35°27' E 139°41'0 0.0
2017-Sep-27 13:58N 35°27' E 139°41'0 0.0
2017-Sep-27 13:28N 35°27' E 139°41'0 0.0
2017-Sep-27 12:58N 35°27' E 139°41'0 0.0
2017-Sep-27 12:28N 35°27' E 139°41'0 0.0
2017-Sep-27 11:58N 35°27' E 139°41'0 0.0
2017-Sep-27 11:28N 35°27' E 139°41'0 0.0
2017-Sep-27 10:58N 35°27' E 139°41'0 0.0
2017-Sep-27 10:28N 35°27' E 139°41'0 0.0
2017-Sep-27 09:58N 35°27' E 139°41'0 0.0
2017-Sep-27 09:28N 35°27' E 139°41'0 0.0
2017-Sep-27 08:58N 35°27' E 139°41'0 0.0
2017-Sep-27 08:28N 35°27' E 139°41'0 0.0
2017-Sep-27 07:58N 35°27' E 139°41'0 0.0
2017-Sep-27 07:28N 35°27' E 139°41'0 0.0
2017-Sep-27 06:58N 35°27' E 139°41'0 0.0
2017-Sep-27 06:28N 35°27' E 139°41'0 0.0
2017-Sep-27 05:58N 35°27' E 139°41'0 0.0
2017-Sep-27 05:28N 35°27' E 139°41'0 0.0
2017-Sep-27 04:58N 35°27' E 139°41'0 0.0
2017-Sep-27 04:28N 35°27' E 139°41'0 0.0
2017-Sep-27 03:58N 35°27' E 139°41'0 0.0
2017-Sep-27 03:28N 35°27' E 139°41'0 0.0
2017-Sep-27 02:58N 35°27' E 139°41'0 0.0
2017-Sep-27 02:28N 35°27' E 139°41'0 0.0
2017-Sep-27 01:58N 35°27' E 139°41'0 0.0
2017-Sep-27 01:28N 35°27' E 139°41'0 0.0
2017-Sep-27 00:58N 35°27' E 139°41'0 0.0
2017-Sep-27 00:28N 35°27' E 139°41'0 0.0
2017-Sep-26 23:58N 35°27' E 139°41'0 0.0
2017-Sep-26 23:28N 35°27' E 139°41'0 0.0
2017-Sep-26 22:58N 35°27' E 139°41'0 0.0
2017-Sep-26 22:28N 35°27' E 139°41'0 0.0
2017-Sep-26 21:58N 35°27' E 139°41'0 0.0
2017-Sep-26 21:28N 35°27' E 139°41'0 0.0
2017-Sep-26 20:58N 35°27' E 139°41'0 0.0
2017-Sep-26 20:28N 35°27' E 139°41'0 0.0
2017-Sep-26 19:58N 35°27' E 139°41'0 0.0
2017-Sep-26 19:28N 35°27' E 139°41'0 0.0
2017-Sep-26 18:58N 35°27' E 139°41'0 0.0
2017-Sep-26 18:28N 35°27' E 139°41'0 0.0
2017-Sep-26 17:58N 35°27' E 139°41'0 0.0
2017-Sep-26 17:28N 35°27' E 139°41'0 0.0
2017-Sep-26 16:58N 35°27' E 139°41'0 0.0
2017-Sep-26 16:28N 35°27' E 139°41'0 0.0
2017-Sep-26 15:58N 35°27' E 139°41'0 0.0
2017-Sep-26 15:28N 35°27' E 139°41'0 0.0
2017-Sep-26 14:58N 35°27' E 139°41'0 0.0
2017-Sep-26 14:28N 35°27' E 139°41'0 0.0
2017-Sep-26 13:58N 35°27' E 139°41'0 0.0
2017-Sep-26 13:28N 35°27' E 139°41'0 0.0
2017-Sep-26 12:58N 35°27' E 139°41'0 0.0
2017-Sep-26 12:28N 35°27' E 139°41'0 0.0
2017-Sep-26 11:58N 35°27' E 139°41'0 0.0
2017-Sep-26 11:28N 35°27' E 139°41'0 0.0
2017-Sep-26 10:58N 35°27' E 139°41'0 0.0
2017-Sep-26 10:28N 35°27' E 139°41'0 0.0
2017-Sep-26 09:58N 35°27' E 139°41'0 0.0
2017-Sep-26 09:28N 35°27' E 139°41'0 0.0
2017-Sep-26 08:58N 35°27' E 139°41'0 0.0
2017-Sep-26 08:28N 35°27' E 139°41'0 0.0
2017-Sep-26 07:58N 35°27' E 139°41'0 0.0
2017-Sep-26 07:28N 35°27' E 139°41'0 0.0
2017-Sep-26 06:58N 35°27' E 139°41'0 0.0
2017-Sep-26 06:28N 35°27' E 139°41'0 0.0
2017-Sep-26 05:58N 35°27' E 139°41'0 0.0
2017-Sep-26 05:28N 35°27' E 139°41'0 0.0
2017-Sep-26 04:58N 35°27' E 139°41'0 0.0
2017-Sep-26 04:28N 35°27' E 139°41'0 0.0
2017-Sep-26 03:58N 35°27' E 139°41'0 0.0
2017-Sep-26 03:28N 35°27' E 139°41'0 0.0
2017-Sep-26 03:00N 35°27' E 139°41'0 0.0
2017-Sep-26 02:30N 35°27' E 139°41'0 0.0
2017-Sep-26 02:00N 35°27' E 139°41'0 0.0
2017-Sep-26 01:27N 35°27' E 139°41'0 0.0
2017-Sep-26 01:00N 35°27' E 139°41'0 0.0
2017-Sep-26 00:30N 35°27' E 139°41'0 0.0
2017-Sep-26 00:00N 35°27' E 139°41'0 0.0
2017-Sep-25 23:30N 35°27' E 139°41'0 0.0
2017-Sep-25 23:00N 35°27' E 139°41'0 0.0
2017-Sep-25 22:30N 35°27' E 139°41'0 0.0
2017-Sep-25 22:00N 35°27' E 139°41'0 0.0
2017-Sep-25 21:30N 35°27' E 139°41'0 0.0
2017-Sep-25 21:00N 35°27' E 139°41'0 0.0
2017-Sep-25 20:30N 35°27' E 139°41'0 0.0
2017-Sep-25 20:00N 35°27' E 139°41'0 0.0
2017-Sep-25 19:30N 35°27' E 139°41'0 0.0
2017-Sep-25 19:00N 35°27' E 139°41'0 0.0
2017-Sep-25 18:30N 35°27' E 139°41'0 0.0
2017-Sep-25 18:00N 35°27' E 139°41'0 0.0
2017-Sep-25 17:30N 35°27' E 139°41'0 0.0
2017-Sep-25 17:00N 35°27' E 139°41'0 0.0
2017-Sep-25 16:30N 35°27' E 139°41'0 0.0
2017-Sep-25 16:00N 35°27' E 139°41'0 0.0
2017-Sep-25 15:30N 35°27' E 139°41'0 0.0
2017-Sep-25 15:00N 35°27' E 139°41'0 0.0
2017-Sep-25 14:30N 35°27' E 139°41'0 0.0
2017-Sep-25 14:00N 35°27' E 139°41'0 0.0
2017-Sep-25 13:30N 35°27' E 139°41'0 0.0
2017-Sep-25 13:00N 35°27' E 139°41'0 0.0
2017-Sep-25 12:30N 35°27' E 139°41'0 0.0
2017-Sep-25 12:00N 35°27' E 139°41'0 0.0
2017-Sep-25 11:30N 35°27' E 139°41'0 0.0
2017-Sep-25 11:00N 35°27' E 139°41'0 0.0
2017-Sep-25 10:30N 35°27' E 139°41'0 0.0
2017-Sep-25 10:00N 35°27' E 139°41'0 0.0
2017-Sep-25 09:27N 35°27' E 139°41'0 0.0
2017-Sep-25 09:00N 35°27' E 139°41'0 0.0
2017-Sep-25 08:30N 35°27' E 139°41'0 0.0
2017-Sep-25 08:00N 35°27' E 139°41'0 0.0
2017-Sep-25 07:30N 35°27' E 139°41'0 0.0
2017-Sep-25 07:00N 35°27' E 139°41'0 0.0
2017-Sep-25 06:30N 35°27' E 139°41'0 0.0
2017-Sep-25 06:00N 35°27' E 139°41'0 0.0
2017-Sep-25 05:30N 35°27' E 139°41'0 0.0
2017-Sep-25 05:00N 35°27' E 139°41'0 0.0
2017-Sep-25 04:30N 35°27' E 139°41'0 0.0
2017-Sep-25 04:00N 35°27' E 139°41'0 0.0
2017-Sep-25 03:30N 35°27' E 139°41'0 0.0
2017-Sep-25 03:00N 35°27' E 139°41'0 0.0
2017-Sep-25 02:30N 35°27' E 139°41'0 0.0
2017-Sep-25 02:00N 35°27' E 139°41'0 0.0
2017-Sep-25 01:30N 35°27' E 139°41'0 0.0
2017-Sep-25 01:00N 35°27' E 139°41'0 0.0
2017-Sep-25 00:30N 35°27' E 139°41'0 0.0
2017-Sep-25 00:00N 35°27' E 139°41'0 0.0
2017-Sep-24 23:30N 35°27' E 139°41'0 0.0
2017-Sep-24 23:00N 35°27' E 139°41'0 0.0
2017-Sep-24 22:30N 35°27' E 139°41'0 0.0
2017-Sep-24 22:00N 35°27' E 139°41'0 0.0
2017-Sep-24 21:30N 35°27' E 139°41'0 0.0
2017-Sep-24 21:00N 35°27' E 139°41'0 0.0
2017-Sep-24 20:30N 35°27' E 139°41'0 0.0
2017-Sep-24 20:00N 35°27' E 139°41'0 0.0
2017-Sep-24 19:30N 35°27' E 139°41'0 0.0
2017-Sep-24 19:00N 35°27' E 139°41'0 0.0
2017-Sep-24 18:30N 35°27' E 139°41'0 0.0
2017-Sep-24 18:00N 35°27' E 139°41'0 0.0
2017-Sep-24 17:30N 35°27' E 139°41'0 0.0
2017-Sep-24 17:00N 35°27' E 139°41'0 0.0
2017-Sep-24 16:30N 35°27' E 139°41'0 0.0
2017-Sep-24 16:00N 35°27' E 139°41'0 0.0
2017-Sep-24 15:30N 35°27' E 139°41'0 0.0
2017-Sep-24 15:00N 35°27' E 139°41'0 0.0
2017-Sep-24 14:30N 35°27' E 139°41'0 0.0
2017-Sep-24 14:00N 35°27' E 139°41'0 0.0
2017-Sep-24 13:30N 35°27' E 139°41'0 0.0
2017-Sep-24 13:00N 35°27' E 139°41'0 0.0
2017-Sep-24 12:30N 35°27' E 139°41'0 0.0
2017-Sep-24 12:00N 35°27' E 139°41'0 0.0
2017-Sep-24 11:30N 35°27' E 139°41'0 0.0
2017-Sep-24 11:00N 35°27' E 139°41'0 0.0
2017-Sep-24 10:30N 35°27' E 139°41'0 0.0
2017-Sep-24 10:00N 35°27' E 139°41'0 0.0
2017-Sep-24 09:30N 35°27' E 139°41'0 0.0
2017-Sep-24 09:00N 35°27' E 139°41'0 0.0
2017-Sep-24 08:30N 35°27' E 139°41'0 0.0
2017-Sep-24 08:00N 35°27' E 139°41'0 0.0
2017-Sep-24 07:30N 35°27' E 139°41'0 0.0
2017-Sep-24 07:00N 35°27' E 139°41'0 0.0
2017-Sep-24 06:30N 35°27' E 139°41'0 0.0
2017-Sep-24 06:00N 35°27' E 139°41'0 0.0
2017-Sep-24 05:30N 35°27' E 139°41'0 0.0
2017-Sep-24 05:00N 35°27' E 139°41'0 0.0
2017-Sep-24 04:30N 35°27' E 139°41'0 0.0
2017-Sep-24 04:00N 35°27' E 139°41'0 0.0
2017-Sep-24 03:30N 35°27' E 139°41'0 0.0
2017-Sep-24 03:00N 35°27' E 139°41'0 0.0
2017-Sep-24 02:30N 35°27' E 139°41'0 0.0
2017-Sep-24 02:00N 35°27' E 139°41'0 0.0
2017-Sep-24 01:30N 35°27' E 139°41'0 0.0
2017-Sep-24 01:00N 35°27' E 139°41'0 0.0
2017-Sep-24 00:30N 35°27' E 139°41'0 0.0
2017-Sep-24 00:00N 35°27' E 139°41'0 0.0
2017-Sep-23 23:30N 35°27' E 139°41'0 0.0
2017-Sep-23 23:00N 35°27' E 139°41'0 0.0
2017-Sep-23 22:30N 35°27' E 139°41'0 0.0
2017-Sep-23 22:00N 35°27' E 139°41'0 0.0
2017-Sep-23 21:30N 35°27' E 139°41'0 0.0
2017-Sep-23 21:00N 35°27' E 139°41'0 0.0
2017-Sep-23 20:30N 35°27' E 139°41'0 0.0
2017-Sep-23 20:00N 35°27' E 139°41'0 0.0
2017-Sep-22 02:00N 35°27' E 139°41'0 0.0
2017-Sep-22 01:30N 35°27' E 139°41'0 0.0
2017-Sep-22 01:00N 35°27' E 139°41'0 0.0
2017-Sep-22 00:30N 35°27' E 139°41'0 0.0
2017-Sep-22 00:00N 35°27' E 139°41'0 0.0
2017-Sep-21 23:30N 35°27' E 139°41'0 0.0
2017-Sep-21 23:00N 35°27' E 139°41'0 0.0
2017-Sep-21 22:30N 35°27' E 139°41'0 0.0
2017-Sep-21 22:00N 35°27' E 139°41'0 0.0
2017-Sep-21 21:30N 35°27' E 139°41'0 0.0
2017-Sep-21 21:00N 35°27' E 139°41'0 0.0
2017-Sep-21 20:30N 35°27' E 139°41'0 0.0
2017-Sep-21 20:00N 35°27' E 139°41'0 0.0
2017-Sep-21 19:30N 35°27' E 139°41'0 0.0
2017-Sep-21 19:00N 35°27' E 139°41'0 0.0
2017-Sep-21 18:30N 35°27' E 139°41'0 0.0
2017-Sep-21 18:00N 35°27' E 139°41'0 0.0
2017-Sep-21 17:30N 35°27' E 139°41'0 0.0
2017-Sep-21 17:00N 35°27' E 139°41'0 0.0
2017-Sep-21 16:30N 35°27' E 139°41'0 0.0
2017-Sep-21 16:00N 35°27' E 139°41'0 0.0
2017-Sep-21 15:30N 35°27' E 139°41'0 0.0
2017-Sep-21 15:00N 35°27' E 139°41'0 0.0
2017-Sep-21 14:30N 35°27' E 139°41'0 0.0
2017-Sep-21 14:00N 35°27' E 139°41'0 0.0
2017-Sep-21 13:30N 35°27' E 139°41'0 0.0
2017-Sep-21 13:00N 35°27' E 139°41'0 0.0
2017-Sep-21 12:30N 35°27' E 139°41'0 0.0
2017-Sep-21 12:00N 35°27' E 139°41'0 0.0
2017-Sep-21 11:30N 35°27' E 139°41'0 0.0
2017-Sep-21 11:00N 35°27' E 139°41'0 0.0
2017-Sep-21 10:30N 35°27' E 139°41'0 0.0
2017-Sep-21 10:00N 35°27' E 139°41'0 0.0
2017-Sep-21 09:30N 35°27' E 139°41'0 0.0
2017-Sep-21 09:00N 35°27' E 139°41'0 0.0
2017-Sep-21 08:30N 35°27' E 139°41'0 0.0
2017-Sep-21 08:00N 35°27' E 139°41'0 0.0
2017-Sep-21 07:30N 35°27' E 139°41'0 0.0
2017-Sep-21 07:00N 35°27' E 139°41'0 0.0
2017-Sep-21 06:30N 35°27' E 139°41'0 0.0
2017-Sep-21 06:00N 35°27' E 139°41'0 0.0
2017-Sep-21 05:30N 35°27' E 139°41'0 0.0
2017-Sep-21 05:00N 35°27' E 139°41'0 0.0
2017-Sep-21 04:30N 35°27' E 139°41'0 0.0
2017-Sep-21 04:00N 35°27' E 139°41'0 0.0
2017-Sep-21 03:30N 35°27' E 139°41'0 0.0
2017-Sep-21 03:00N 35°27' E 139°41'0 0.0
2017-Sep-21 02:30N 35°27' E 139°41'0 0.0
2017-Sep-21 02:00N 35°27' E 139°41'0 0.0
2017-Sep-21 01:30N 35°27' E 139°41'0 0.0
2017-Sep-21 01:00N 35°27' E 139°41'0 0.0
2017-Sep-21 00:30N 35°27' E 139°41'0 0.0
2017-Sep-20 23:57N 35°27' E 139°41'0 0.0
2017-Sep-20 23:30N 35°27' E 139°41'0 0.0
2017-Sep-20 23:00N 35°27' E 139°41'0 0.0
2017-Sep-20 22:30N 35°27' E 139°41'0 0.0
2017-Sep-20 22:00N 35°27' E 139°41'0 0.0
2017-Sep-20 21:30N 35°27' E 139°41'0 0.0
2017-Sep-20 21:00N 35°27' E 139°41'0 0.0
2017-Sep-20 20:30N 35°27' E 139°41'0 0.0
2017-Sep-20 20:00N 35°27' E 139°41'0 0.0
2017-Sep-20 19:30N 35°27' E 139°41'0 0.0
2017-Sep-20 19:00N 35°27' E 139°41'0 0.0
2017-Sep-20 18:30N 35°27' E 139°41'0 0.0
2017-Sep-20 18:00N 35°27' E 139°41'0 0.0
2017-Sep-20 17:30N 35°27' E 139°41'0 0.0
2017-Sep-20 17:00N 35°27' E 139°41'0 0.0
2017-Sep-20 16:30N 35°27' E 139°41'0 0.0
2017-Sep-20 16:00N 35°27' E 139°41'0 0.0
2017-Sep-20 15:30N 35°27' E 139°41'0 0.0
2017-Sep-20 15:00N 35°27' E 139°41'0 0.0
2017-Sep-20 14:00N 35°27' E 139°41'0 0.0
2017-Sep-20 13:30N 35°27' E 139°41'0 0.0
2017-Sep-20 13:00N 35°27' E 139°41'0 0.0
2017-Sep-20 12:30N 35°27' E 139°41'0 0.0
2017-Sep-20 12:00N 35°27' E 139°41'0 0.0
2017-Sep-20 11:30N 35°27' E 139°41'0 0.0
2017-Sep-20 11:00N 35°27' E 139°41'0 0.0
2017-Sep-20 10:30N 35°27' E 139°41'0 0.0
2017-Sep-20 10:00N 35°27' E 139°41'0 0.0
2017-Sep-20 09:30N 35°27' E 139°41'0 0.0
2017-Sep-20 09:00N 35°27' E 139°41'0 0.0
2017-Sep-20 08:30N 35°27' E 139°41'0 0.0
2017-Sep-20 08:00N 35°27' E 139°41'0 0.2
2017-Sep-20 07:30N 35°28' E 139°41'2 4.7
2017-Sep-20 07:00N 35°27' E 139°44'2 4.7
2017-Sep-20 06:30N 35°25' E 139°46'4 7.3
2017-Sep-20 05:59N 35°21' E 139°45'5 9.2
2017-Sep-20 05:30N 35°17' E 139°46'5 9.3
2017-Sep-20 05:00N 35°12' E 139°47'4 8.9
2017-Sep-20 04:30N 35°08' E 139°47'3 6.5
2017-Sep-20 04:00N 35°05' E 139°47'4 8.7
2017-Sep-20 03:30N 35°01' E 139°45'5 9.1
2017-Sep-20 03:00N 34°56' E 139°43'  

Dump ship's entire track history